• Join FlightAware (Why Join?)
  • Login
  • US Flag 
08:34PM EST


 

Airport Tracker/Info


-or-


 

Live Flight TrackerFlight Track Log ✈ UAL1645 ✈ 26-Apr-2014 ✈ KFLL - KSFO

Flight Track Log - Related Links

Times and Time Zones

All times are in EDT time to prevent confusion due to time zone crossing. See the UAL1645 flight status page for this flight to view local times or setup timezone preferences in your user account.

Time Position Orientation Groundspeed Altitude Reporting Facility
EDT Latitude Longitude Course Direction KTS MPH feet Rate Location/Type
06:15PM 26.0750 -80.1297 336° Northwest 173 199 900  Level Miami Center
06:17PM 26.0911 -80.0608 75° East 252 290 2,900 1,860 Climbing Miami Center
06:18PM 26.1676 -80.4889 293° West  Level FlightAware Approximate
06:18PM 26.1600 -80.0672 355° North 266 306 4,900  Level Miami Center
06:19PM 26.2106 -80.6010 293° West  Level FlightAware Approximate
06:19PM 26.2306 -80.0922 342° North 269 310 5,000  Level Miami Center
06:19PM 26.2469 -80.1019 332° Northwest 284 327 5,000 2,595 Level Miami Center
06:20PM 26.3026 -80.6596 336° Northwest  Level FlightAware Approximate
06:20PM 26.2786 -80.1769 295° West 272 313 8,200  Level Miami Center
06:21PM 26.3987 -80.7160 336° Northwest  Level FlightAware Approximate
06:21PM 26.2808 -80.2650 272° West 270 311 9,700  Level Miami Center
06:22PM 26.2847 -80.3650 273° West 309 356 11,000 1,300 Climbing Miami Center
06:23PM 26.2883 -80.4761 272° West 350 403 12,300 1,700 Climbing Miami Center
06:24PM 26.3147 -80.5928 284° West 385 443 14,400 1,950 Climbing Miami Center
06:25PM 26.3789 -80.6900 306° West 385 443 16,200 1,900 Climbing Miami Center
06:26PM 26.4450 -80.7964 305° West 404 465 18,200 1,850 Climbing Miami Center
06:27PM 26.5131 -80.9008 306° West 417 480 19,900 1,700 Climbing Miami Center
06:28PM 26.5731 -80.9981 305° West 422 486 21,600 1,450 Climbing Miami Center
06:29PM 26.6281 -81.1208 297° West 427 491 22,800 1,350 Climbing Miami Center
06:30PM 26.6928 -81.2558 298° West 446 513 24,300 1,350 Climbing Miami Center
06:31PM 26.7517 -81.3789 298° West 451 519 25,500 1,250 Climbing Miami Center
06:32PM 26.8106 -81.5044 298° West 456 525 26,800 1,400 Climbing Miami Center
06:33PM 26.8611 -81.6181 297° West 456 525 28,300 1,300 Climbing Miami Center
06:34PM 26.9153 -81.7414 296° West 451 519 29,400 1,100 Climbing Miami Center
06:35PM 26.9739 -81.8650 298° West 451 519 30,500 1,200 Climbing Miami Center
06:36PM 27.0358 -82.0006 297° West 451 519 31,800 1,150 Climbing Miami Center
06:37PM 27.0900 -82.1194 297° West 438 504 32,800 950 Climbing Miami Center
06:38PM 27.1406 -82.2244 298° West 438 504 33,700 550 Climbing Miami Center
06:39PM 27.1942 -82.3483 296° West 438 504 33,900 150 Climbing Miami Center
06:40PM 27.2561 -82.4772 298° West 438 504 34,000 50 Climbing Miami Center
06:41PM 27.3117 -82.5992 297° West 443 510 34,000  Level Miami Center
06:42PM 27.3617 -82.7067 298° West 437 503 34,000  Level Miami Center
06:43PM 27.4131 -82.8264 296° West 431 496 34,000 -50 Level Miami Center
06:44PM 27.4644 -82.9458 296° West 431 496 33,900 -50 Descending Miami Center
06:45PM 27.5178 -83.0633 297° West 431 496 33,900 50 Level Miami Center
06:46PM 27.5731 -83.1833 297° West 431 496 34,000 50 Climbing Miami Center
06:47PM 27.6242 -83.3008 296° West 431 496 34,000  Level Miami Center
06:48PM 27.6792 -83.4236 297° West 436 502 34,000  Level Miami Center
06:49PM 27.7300 -83.5458 295° West 436 502 34,000  Level Miami Center
06:50PM 27.7825 -83.6661 296° West 436 502 34,000 -50 Level Miami Center
06:51PM 27.8372 -83.7869 297° West 436 502 33,900  Descending Miami Center
06:53PM 27.9753 -84.1006 297° West 427 491 34,000 29 Climbing Jacksonville Center
06:54PM 28.0283 -84.2233 296° West 427 491 34,000  Level Jacksonville Center
06:55PM 28.0811 -84.3439 296° West 427 491 34,000  Level Jacksonville Center
06:56PM 28.1281 -84.4436 298° West 432 497 34,000 -50 Level Jacksonville Center
06:57PM 28.1806 -84.5761 294° West 426 490 33,900  Descending Jacksonville Center
06:58PM 28.2353 -84.6972 297° West 431 496 34,000 50 Climbing Jacksonville Center
06:59PM 28.2858 -84.8206 295° West 431 496 34,000  Level Jacksonville Center
07:00PM 28.3403 -84.9419 297° West 431 496 34,000 -50 Level Jacksonville Center
07:01PM 28.3903 -85.0681 294° West 431 496 33,900 -50 Descending Jacksonville Center
07:02PM 28.4425 -85.1894 296° West 425 489 33,900 50 Level Jacksonville Center
07:03PM 28.4944 -85.3136 295° West 430 495 34,000 50 Climbing Jacksonville Center
07:04PM 28.5464 -85.4378 295° West 430 495 34,000  Level Jacksonville Center
07:05PM 28.5981 -85.5572 296° West 430 495 34,000  Level Jacksonville Center
07:06PM 28.6497 -85.6817 295° West 430 495 34,000  Level Jacksonville Center
07:07PM 28.7033 -85.8086 296° West 430 495 34,000  Level Jacksonville Center
07:08PM 28.7547 -85.9261 297° West 430 495 34,000  Level Jacksonville Center
07:09PM 28.8061 -86.0508 295° West 430 495 34,000  Level Jacksonville Center
07:10PM 28.8550 -86.1781 294° West 430 495 34,000  Level Jacksonville Center
07:11PM 28.9081 -86.3008 296° West 430 495 34,000  Level Jacksonville Center
07:12PM 28.9589 -86.4258 295° West 430 495 34,000  Level Jacksonville Center
07:13PM 29.0117 -86.5536 295° West 435 501 34,000  Level Jacksonville Center
07:14PM 29.0664 -86.6861 295° West 435 501 34,000 -50 Level Jacksonville Center
07:15PM 29.1169 -86.8092 295° West 430 495 33,900 -50 Descending Jacksonville Center
07:16PM 29.1672 -86.9350 295° West 430 495 33,900 50 Level Jacksonville Center
07:17PM 29.2175 -87.0583 295° West 430 495 34,000 51 Climbing Jacksonville Center
07:18PM 29.2653 -87.1742 295° West 433 498 34,000  Level Houston Center
07:19PM 29.3150 -87.2983 295° West 432 497 34,000  Level Houston Center
07:20PM 29.3650 -87.4228 295° West 431 496 34,000  Level Houston Center
07:21PM 29.4142 -87.5494 294° West 431 496 34,000  Level Houston Center
07:22PM 29.4642 -87.6731 295° West 431 496 34,000  Level Houston Center
07:23PM 29.5133 -87.7983 294° West 430 495 34,000  Level Houston Center
07:24PM 29.5719 -87.9475 294° West 429 494 34,000  Level Houston Center
07:25PM 29.6219 -88.0719 295° West 429 494 34,000  Level Houston Center
07:27PM 29.6700 -88.1967 294° West 427 491 34,000  Level Houston Center
07:28PM 29.7192 -88.3225 294° West 428 493 34,000  Level Houston Center
07:29PM 29.7719 -88.4578 294° West 428 493 34,000  Level Houston Center
07:30PM 29.8208 -88.5839 294° West 429 494 34,000  Level Houston Center
07:31PM 29.8697 -88.7103 294° West 430 495 34,000 -48 Level Houston Center
07:32PM 29.9175 -88.8369 294° West 432 497 33,900  Descending Houston Center
07:33PM 29.9664 -88.9628 294° West 432 497 34,000 48 Climbing Houston Center
07:34PM 30.0133 -89.0883 293° West 429 494 34,000  Level Houston Center
07:35PM 30.0717 -89.2389 294° West 429 494 34,000  Level Houston Center
07:36PM 30.1186 -89.3647 293° West 429 494 34,000  Level Houston Center
07:37PM 30.1667 -89.4894 294° West 427 491 34,000  Level Houston Center
07:38PM 30.2136 -89.6150 293° West 426 490 34,000  Level Houston Center
07:39PM 30.2581 -89.7331 294° West 427 491 34,000  Level Houston Center
07:40PM 30.3156 -89.8842 294° West 429 494 34,000 -48 Level Houston Center
07:41PM 30.3581 -90.0033 292° West 428 493 33,900  Descending Houston Center
07:42PM 30.4056 -90.1294 294° West 428 493 34,000  Climbing Houston Center
07:43PM 30.4519 -90.2553 293° West 426 490 33,900 -48 Descending Houston Center
07:44PM 30.4992 -90.3800 294° West 425 489 33,900 49 Level Houston Center
07:45PM 30.5531 -90.5308 293° West 424 488 34,000  Climbing Houston Center
07:46PM 30.5994 -90.6553 293° West 423 487 33,900  Descending Houston Center
07:47PM 30.6444 -90.7803 293° West 422 486 34,000 49 Climbing Houston Center
07:48PM 30.6897 -90.9053 293° West 422 486 34,000  Level Houston Center
07:49PM 30.7361 -91.0300 293° West 421 484 34,000  Level Houston Center
07:50PM 30.7794 -91.1544 292° West 422 486 34,000  Level Houston Center
07:51PM 30.8250 -91.2803 293° West 422 486 34,000  Level Houston Center
07:52PM 30.8803 -91.4322 293° West 423 487 34,000  Level Houston Center
07:53PM 30.9242 -91.5608 292° West 425 489 34,000  Level Houston Center
07:54PM 30.9711 -91.6875 293° West 426 490 34,000  Level Houston Center
07:55PM 31.0156 -91.8153 292° West 426 490 34,000  Level Houston Center
07:56PM 31.0611 -91.9433 293° West 426 490 34,000  Level Houston Center
07:57PM 31.1078 -92.0756 292° West 427 491 34,000 -49 Level Houston Center
07:58PM 31.1522 -92.2033 292° West 429 494 33,900  Descending Houston Center
07:59PM 31.1969 -92.3308 292° West 428 493 34,000  Climbing Houston Center
08:00PM 31.2417 -92.4583 292° West 430 495 33,900  Descending Houston Center
08:01PM 31.2972 -92.6125 293° West 432 497 34,000 49 Climbing Houston Center
08:02PM 31.3456 -92.7386 294° West 430 495 34,000  Level Houston Center
08:03PM 31.3925 -92.8661 293° West 429 494 34,000  Level Houston Center
08:05PM 31.4392 -92.9917 294° West 428 493 34,000 -49 Level Houston Center
08:06PM 31.4847 -93.1181 293° West 427 491 33,900 -49 Descending Houston Center
08:07PM 31.5314 -93.2447 293° West 426 490 33,900 49 Level Houston Center
08:08PM 31.5817 -93.3836 293° West 425 489 34,000 49 Climbing Houston Center
08:09PM 31.6278 -93.5097 293° West 425 489 34,000 -49 Level Houston Center
08:10PM 31.6767 -93.6442 293° West 424 488 33,900  Descending Houston Center
08:11PM 31.7272 -93.7697 295° West 425 489 34,000 49 Climbing Houston Center
08:12PM 31.7717 -93.8986 292° West 427 491 34,000  Level Houston Center
08:12PM 31.7964 -93.9708 292° West 427 491 34,000  Level Fort Worth Center
08:13PM 31.8625 -94.0964 302° West 434 499 34,000  Level Fort Worth Center
08:14PM 31.9233 -94.2178 301° West 433 498 34,000  Level Fort Worth Center
08:15PM 31.9964 -94.3639 301° West 432 497 34,000  Level Fort Worth Center
08:16PM 32.0564 -94.4842 301° West 432 497 34,000  Level Fort Worth Center
08:17PM 32.1161 -94.6069 300° West 432 497 34,000  Level Fort Worth Center
08:18PM 32.1761 -94.7292 300° West 431 496 34,000  Level Fort Worth Center
08:19PM 32.2311 -94.8394 301° West 429 494 34,000 585 Level Fort Worth Center
08:20PM 32.2994 -94.9892 298° West 430 495 35,200 976 Climbing Fort Worth Center
08:22PM 32.3450 -95.1058 295° West 418 481 36,000 390 Climbing Fort Worth Center
08:23PM 32.3992 -95.2322 297° West 424 488 36,000  Level Fort Worth Center
08:24PM 32.4514 -95.3589 296° West 427 491 36,000  Level Fort Worth Center
08:25PM 32.5033 -95.4864 296° West 429 494 36,000  Level Fort Worth Center
08:26PM 32.5667 -95.6394 296° West 433 498 36,000  Level Fort Worth Center
08:27PM 32.6172 -95.7661 295° West 425 489 36,000  Level Fort Worth Center
08:28PM 32.6675 -95.8939 295° West 427 491 36,000  Level Fort Worth Center
08:29PM 32.7200 -96.0217 296° West 431 496 36,000  Level Fort Worth Center
08:30PM 32.7711 -96.1478 296° West 427 491 36,000  Level Fort Worth Center
08:31PM 32.8208 -96.2753 295° West 427 491 36,000  Level Fort Worth Center
08:32PM 32.8714 -96.4028 295° West 428 493 36,000  Level Fort Worth Center
08:33PM 32.9231 -96.5314 296° West 434 499 36,000  Level Fort Worth Center
08:34PM 32.9756 -96.6600 296° West 434 499 36,000  Level Fort Worth Center
08:35PM 33.0342 -96.8136 295° West 432 497 36,000  Level Fort Worth Center
08:36PM 33.0844 -96.9406 295° West 428 493 36,000  Level Fort Worth Center
08:37PM 33.1342 -97.0686 295° West 429 494 36,000  Level Fort Worth Center
08:38PM 33.1839 -97.1964 295° West 431 496 36,000  Level Fort Worth Center
08:39PM 33.2328 -97.3242 295° West 431 496 36,000  Level Fort Worth Center
08:40PM 33.2817 -97.4528 294° West 431 496 36,000  Level Fort Worth Center
08:41PM 33.3411 -97.6089 295° West 431 496 36,000  Level Fort Worth Center
08:42PM 33.3906 -97.7386 295° West 431 496 36,000  Level Fort Worth Center
08:43PM 33.4400 -97.8697 294° West 431 496 36,000  Level Fort Worth Center
08:44PM 33.4894 -98.0022 294° West 434 499 36,000  Level Fort Worth Center
08:45PM 33.5456 -98.1458 295° West 434 499 36,000  Level Fort Worth Center
08:46PM 33.6025 -98.2586 301° West 441 507 36,000  Level Fort Worth Center
08:47PM 33.6742 -98.3789 306° West 446 513 36,000  Level Fort Worth Center
08:48PM 33.7486 -98.4978 307° West 446 513 36,000  Level Fort Worth Center
08:49PM 33.8264 -98.6125 309° West 446 513 36,000  Level Fort Worth Center
08:50PM 33.9200 -98.7522 309° West 446 513 36,000  Level Fort Worth Center
08:51PM 33.9956 -98.8694 308° West 445 512 36,000  Level Fort Worth Center
08:52PM 34.0664 -98.9906 305° West 445 512 36,000  Level Fort Worth Center
08:53PM 34.1567 -99.1128 312° West 463 533 36,000  Level Fort Worth Center
08:54PM 34.2308 -99.2150 311° West 442 509 36,000  Level Fort Worth Center
08:55PM 34.2964 -99.3336 304° West 425 489 36,000  Level Fort Worth Center
08:56PM 34.3614 -99.4611 302° West 417 480 36,000  Level Fort Worth Center
08:57PM 34.4178 -99.5844 299° West 417 480 36,000  Level Fort Worth Center
08:58PM 34.4772 -99.7067 301° West 418 481 36,000  Level Fort Worth Center
08:59PM 34.5339 -99.8222 301° West 419 482 36,000  Level Fort Worth Center
09:00PM 34.5939 -99.9453 301° West 422 486 36,000  Level Fort Worth Center
09:01PM 34.6578 -100.0761 301° West 422 486 36,000  Level Fort Worth Center
09:02PM 34.7203 -100.1992 302° West 425 489 36,000  Level Fort Worth Center
09:03PM 34.7742 -100.3283 297° West 425 489 36,000  Level Fort Worth Center
09:04PM 34.8208 -100.4775 291° West 424 488 36,000  Level Fort Worth Center
09:05PM 34.8631 -100.6100 291° West 423 487 36,000  Level Fort Worth Center
09:06PM 34.8864 -100.6883 290° West 421 484 36,000  Level Albuquerque Center
09:07PM 34.9281 -100.8203 291° West 419 482 36,000  Level Albuquerque Center
09:08PM 34.9694 -100.9536 291° West 419 482 36,000  Level Albuquerque Center
09:09PM 35.0092 -101.0833 291° West 414 476 36,000  Level Albuquerque Center
09:10PM 35.0514 -101.2167 291° West 416 479 36,000  Level Albuquerque Center
09:11PM 35.0983 -101.3678 291° West 425 489 36,000  Level Albuquerque Center
09:12PM 35.1431 -101.5044 292° West 429 494 36,000  Level Albuquerque Center
09:13PM 35.1844 -101.6406 290° West 429 494 36,000  Level Albuquerque Center
09:14PM 35.2261 -101.7878 289° West 428 493 36,000  Level Albuquerque Center
09:15PM 35.2703 -101.9275 291° West 430 495 36,000  Level Albuquerque Center
09:16PM 35.3044 -102.0483 289° West 430 495 36,000  Level Albuquerque Center
09:17PM 35.3464 -102.1856 291° West 431 496 36,000  Level Albuquerque Center
09:18PM 35.3950 -102.3497 290° West 430 495 36,000  Level Albuquerque Center
09:19PM 35.4344 -102.4861 290° West 428 493 36,000  Level Albuquerque Center
09:20PM 35.4747 -102.6164 291° West 427 491 36,000  Level Albuquerque Center
09:21PM 35.5150 -102.7531 290° West 425 489 36,000  Level Albuquerque Center
09:22PM 35.5553 -102.8894 290° West 424 488 36,000  Level Albuquerque Center
09:23PM 35.5936 -103.0236 289° West 420 483 36,000  Level Albuquerque Center
09:24PM 35.6317 -103.1575 289° West 417 480 36,000  Level Albuquerque Center
09:25PM 35.6700 -103.2917 289° West 417 480 36,000  Level Albuquerque Center
09:26PM 35.7100 -103.4278 290° West 417 480 36,000  Level Albuquerque Center
09:27PM 35.7492 -103.5650 289° West 419 482 36,000  Level Albuquerque Center
09:28PM 35.7947 -103.7258 289° West 422 486 36,000  Level Albuquerque Center
09:29PM 35.8331 -103.8639 289° West 422 486 36,000  Level Albuquerque Center
09:30PM 35.8725 -104.0025 289° West 424 488 36,000  Level Albuquerque Center
09:31PM 35.9108 -104.1394 289° West 424 488 36,000  Level Albuquerque Center
09:32PM 35.9489 -104.2775 289° West 424 488 36,000  Level Albuquerque Center
09:34PM 35.9867 -104.4150 289° West 423 487 36,000  Level Albuquerque Center
09:35PM 36.0244 -104.5514 289° West 422 486 36,000  Level Albuquerque Center
09:36PM 36.0625 -104.6914 289° West 423 487 36,000  Level Albuquerque Center
09:37PM 36.1017 -104.8336 289° West 431 496 36,000  Level Albuquerque Center
09:38PM 36.1397 -104.9747 289° West 431 496 36,000  Level Albuquerque Center
09:39PM 36.1786 -105.1164 289° West 431 496 36,000  Level Albuquerque Center
09:40PM 36.2172 -105.2633 288° West 440 506 36,000  Level Albuquerque Center
09:41PM 36.2569 -105.4075 289° West 441 507 36,000  Level Albuquerque Center
09:42PM 36.2967 -105.5586 288° West 441 507 36,000  Level Albuquerque Center
09:43PM 36.3353 -105.7031 288° West 441 507 36,000  Level Albuquerque Center
09:44PM 36.3739 -105.8492 288° West 443 510 36,000 -49 Level Albuquerque Center
09:45PM 36.4117 -105.9944 288° West 443 510 35,900  Descending Albuquerque Center
09:46PM 36.4486 -106.1381 288° West 443 510 36,000  Climbing Albuquerque Center
09:47PM 36.4853 -106.2811 288° West 440 506 35,900 -49 Descending Albuquerque Center
09:48PM 36.5214 -106.4228 288° West 436 502 35,900 49 Level Albuquerque Center
09:49PM 36.5642 -106.5894 288° West 434 499 36,000 49 Climbing Albuquerque Center
09:50PM 36.5989 -106.7267 288° West 434 499 36,000  Level Albuquerque Center
09:51PM 36.6400 -106.8878 288° West 435 501 36,000  Level Albuquerque Center
09:52PM 36.6750 -107.0253 288° West 436 502 36,000  Level Albuquerque Center
09:53PM 36.7092 -107.1633 287° West 436 502 36,000  Level Albuquerque Center
09:54PM 36.7478 -107.3247 287° West 436 502 36,000  Level Albuquerque Center
09:55PM 36.7925 -107.5067 287° West 435 501 36,000  Level Denver Center
09:56PM 36.8275 -107.6456 288° West 436 502 36,000  Level Denver Center
09:57PM 36.8675 -107.8097 287° West 442 509 36,000  Level Denver Center
09:58PM 36.8950 -107.9269 286° West 442 509 36,000  Level Denver Center
09:59PM 36.9344 -108.0892 287° West 441 507 36,000  Level Denver Center
10:00PM 36.9731 -108.2522 287° West 442 509 36,000  Level Denver Center
10:01PM 37.0069 -108.3944 287° West 443 510 36,000  Level Denver Center
10:02PM 37.0450 -108.5550 287° West 438 504 36,000  Level Denver Center
10:03PM 37.0778 -108.6947 286° West 436 502 36,000  Level Denver Center
10:04PM 37.1106 -108.8367 286° West 440 506 36,000  Level Denver Center
10:05PM 37.1489 -109.0025 286° West 442 509 36,000  Level Denver Center
10:07PM 37.1811 -109.1450 286° West 442 509 36,000  Level Denver Center
10:08PM 37.2244 -109.3353 286° West 446 513 36,000  Level Denver Center
10:09PM 37.2575 -109.4775 286° West 446 513 36,000  Level Denver Center
10:10PM 37.2939 -109.6417 286° West 439 505 36,000  Level Denver Center
10:11PM 37.3306 -109.8053 286° West 437 503 36,000  Level Denver Center
10:12PM 37.3656 -109.9678 285° West 434 499 36,000  Level Denver Center
10:13PM 37.3969 -110.1058 286° West 433 498 36,000  Level Denver Center
10:14PM 37.4261 -110.2381 286° West 433 498 36,000  Level Denver Center
10:15PM 37.4567 -110.3833 285° West 432 497 36,000  Level Denver Center
10:16PM 37.4950 -110.5556 286° West 430 495 36,000  Level Denver Center
10:17PM 37.5256 -110.7008 285° West 428 493 36,000  Level Denver Center
10:18PM 37.5550 -110.8425 285° West 423 487 36,000  Level Denver Center
10:19PM 37.5853 -110.9842 285° West 423 487 36,000  Level Denver Center
10:20PM 37.6156 -111.1244 285° West 418 481 36,000  Level Denver Center
10:21PM 37.6444 -111.2644 285° West 417 480 36,000  Level Salt Lake Center
10:22PM 37.6739 -111.4025 285° West 414 476 36,000  Level Salt Lake Center
10:23PM 37.7017 -111.5381 285° West 406 467 36,000  Level Salt Lake Center
10:25PM 37.7567 -111.8100 284° West 404 465 36,000  Level Denver Center
10:26PM 37.7853 -111.9458 285° West 404 465 36,000  Level Salt Lake Center
10:27PM 37.8122 -112.0822 284° West 404 465 36,000  Level Salt Lake Center
10:28PM 37.8394 -112.2189 284° West 404 465 36,000  Level Salt Lake Center
10:29PM 37.8669 -112.3553 284° West 404 465 36,000  Level Salt Lake Center
10:30PM 37.8992 -112.5189 284° West 404 465 36,000  Level Salt Lake Center
10:31PM 37.9250 -112.6536 284° West 403 464 36,000  Level Salt Lake Center
10:32PM 37.9519 -112.7900 284° West 402 463 36,000  Level Salt Lake Center
10:33PM 37.9778 -112.9275 283° West 405 466 36,000  Level Salt Lake Center
10:34PM 38.0039 -113.0642 284° West 405 466 36,000  Level Salt Lake Center
10:35PM 38.0300 -113.2011 284° West 404 465 36,000  Level Salt Lake Center
10:36PM 38.0561 -113.3381 284° West 404 465 36,000  Level Salt Lake Center
10:37PM 38.0869 -113.5019 283° West 403 464 36,000  Level Salt Lake Center
10:38PM 38.1114 -113.6378 283° West 401 461 36,000  Level Salt Lake Center
10:39PM 38.1361 -113.7700 283° West 390 449 36,000  Level Salt Lake Center
10:40PM 38.1625 -113.8994 285° West 383 441 36,000  Level Salt Lake Center
10:41PM 38.2217 -114.0061 305° West 371 427 36,000  Level Salt Lake Center
10:42PM 38.2767 -114.1153 303° West 371 427 36,000  Level Salt Lake Center
10:43PM 38.3322 -114.2244 303° West 370 426 36,000  Level Salt Lake Center
10:44PM 38.3892 -114.3328 304° West 370 426 36,000  Level Salt Lake Center
10:45PM 38.4381 -114.4469 299° West 369 425 36,000  Level Salt Lake Center
10:46PM 38.4283 -114.6128 266° West 390 449 36,000  Level Salt Lake Center
10:47PM 38.4106 -114.7500 261° West 393 452 36,000  Level Salt Lake Center
10:49PM 38.3936 -114.8878 261° West 393 452 36,000  Level Salt Lake Center
10:50PM 38.3772 -115.0247 261° West 393 452 36,000  Level Salt Lake Center
10:51PM 38.3597 -115.1611 261° West 393 452 36,000  Level Salt Lake Center
10:52PM 38.3419 -115.2986 261° West 393 452 36,000  Level Salt Lake Center
10:53PM 38.3258 -115.4342 261° West 393 452 36,000  Level Salt Lake Center
10:54PM 38.3069 -115.5714 260° West 393 452 36,000  Level Salt Lake Center
10:55PM 38.2897 -115.7097 261° West 393 452 36,000  Level Salt Lake Center
10:56PM 38.2708 -115.8461 260° West 393 452 36,000  Level Salt Lake Center
10:57PM 38.2506 -116.0083 261° West 389 448 36,000  Level Salt Lake Center
10:58PM 38.2328 -116.1431 261° West 388 447 36,000  Level Salt Lake Center
10:59PM 38.2142 -116.2783 260° West 388 447 36,000  Level Salt Lake Center
11:00PM 38.1992 -116.3847 260° West 387 445 36,000  Level Oakland Center
11:01PM 38.1811 -116.5189 260° West 386 444 36,000  Level Oakland Center
11:02PM 38.1628 -116.6522 260° West 383 441 36,000  Level Oakland Center
11:03PM 38.1444 -116.7861 260° West 386 444 36,000  Level Oakland Center
11:04PM 38.1258 -116.9206 260° West 383 441 36,000  Level Oakland Center
11:05PM 38.1067 -117.0561 260° West 387 445 36,000  Level Oakland Center
11:06PM 38.0861 -117.1975 260° West 390 449 36,000  Level Oakland Center
11:07PM 38.0664 -117.3369 260° West 391 450 36,000  Level Oakland Center
11:08PM 38.0469 -117.4736 260° West 389 448 36,000  Level Oakland Center
11:09PM 38.0275 -117.6083 260° West 390 449 36,000  Level Oakland Center
11:10PM 38.0083 -117.7417 260° West 388 447 36,000  Level Oakland Center
11:11PM 37.9933 -117.8722 262° West 374 430 36,000  Level Oakland Center
11:12PM 37.9786 -118.0050 262° West 375 432 36,000  Level Oakland Center
11:13PM 37.9644 -118.1400 262° West 383 441 36,000  Level Oakland Center
11:14PM 37.9467 -118.2961 262° West 377 434 36,000  Level Oakland Center
11:15PM 37.9328 -118.4258 262° West 371 427 36,000  Level Oakland Center
11:16PM 37.9186 -118.5544 262° West 371 427 36,000 -492 Level Oakland Center
11:17PM 37.9033 -118.6831 261° West 370 426 35,000 -984 Descending Oakland Center
11:18PM 37.8914 -118.8097 263° West 366 421 34,000 -496 Descending Oakland Center
11:19PM 37.8778 -118.9347 262° West 361 415 34,000  Level Oakland Center
11:20PM 37.8622 -119.0644 261° West 360 414 34,000  Level Oakland Center
11:21PM 37.8467 -119.1911 261° West 361 415 34,000  Level Oakland Center
11:22PM 37.8319 -119.3158 262° West 361 415 34,000  Level Oakland Center
11:23PM 37.8183 -119.4419 262° West 361 415 34,000  Level Oakland Center
11:24PM 37.8019 -119.5683 261° West 362 417 34,000 -744 Level Oakland Center
11:25PM 37.7878 -119.6942 262° West 362 417 32,500 -1,636 Descending Oakland Center
11:26PM 37.7719 -119.8186 261° West 362 417 30,700 -1,770 Descending Oakland Center
11:27PM 37.7572 -119.9417 261° West 357 411 28,900 -1,736 Descending Oakland Center
11:28PM 37.7419 -120.0656 261° West 357 411 27,200 -1,438 Descending Oakland Center
11:29PM 37.7272 -120.1861 261° West 352 405 26,000 -590 Descending Oakland Center
11:30PM 37.7119 -120.3083 261° West 352 405 26,000 -298 Level Oakland Center
11:31PM 37.6953 -120.4294 260° West 352 405 25,400 -793 Descending Oakland Center
11:32PM 37.6808 -120.5494 261° West 348 400 24,400 -885 Descending Oakland Center
11:33PM 37.6653 -120.6647 260° West 339 390 23,600 -893 Descending Oakland Center
11:34PM 37.6506 -120.7772 261° West 328 377 22,600 -1,289 Descending Oakland Center
11:35PM 37.6361 -120.8892 261° West 327 376 21,000 -1,981 Descending Oakland Center
11:36PM 37.6167 -120.9833 255° West 328 377 19,100 -2,220 Descending Northern Cal TRACON
11:37PM 37.6167 -121.0833 270° West 323 372 17,300 -1,983 Descending Northern Cal TRACON
11:38PM 37.6000 -121.2000 260° West 314 361 15,100 -1,857 Descending Northern Cal TRACON
11:39PM 37.5833 -121.3000 258° West 315 362 13,400 -1,737 Descending Northern Cal TRACON
11:40PM 37.5833 -121.4167 270° West 311 358 11,800 -1,316 Descending Northern Cal TRACON
11:41PM 37.5667 -121.5167 258° West 295 339 10,900 -421 Descending Northern Cal TRACON
11:42PM 37.5500 -121.6000 256° West 252 290 11,000 -53 Climbing Northern Cal TRACON
11:43PM 37.5667 -121.6667 288° West 251 289 10,800 -655 Descending Northern Cal TRACON
11:44PM 37.5667 -121.7500 270° West 259 298 9,700 -912 Descending Northern Cal TRACON
11:45PM 37.5000 -121.8000 211° Southwest 273 314 8,900 -893 Descending Northern Cal TRACON
11:46PM 37.5000 -121.8833 270° West 236 272 7,900 -1,461 Descending Northern Cal TRACON
11:47PM 37.4833 -121.9667 256° West 240 276 6,100 -1,105 Descending Northern Cal TRACON
11:47PM 37.4833 -122.0333 270° West 230 265 5,800 -750 Descending Northern Cal TRACON
11:49PM 37.5000 -122.1000 288° West 180 207 4,600 -1,176 Descending Northern Cal TRACON
11:49PM 37.5217 -122.1400 304° West 187 215 3,800 -1,063 Descending Oakland Center
11:50PM 37.5436 -122.1931 298° West 178 205 2,900 -942 Descending Oakland Center
11:51PM 37.5658 -122.2450 298° West 173 199 1,900 -836 Descending Oakland Center
11:52PM 37.5842 -122.2897 297° West 159 183 1,200 -744 Descending Oakland Center
11:53PM 37.6025 -122.3328 298° West 147 169 400 -545 Descending Oakland Center
11:54PM 37.6206 -122.3731 300° West 146 168 100 -295 Descending Oakland Center